Time;durP1;ratioP1;P1;durP2;ratioP2;P2;SDS_P1;SDS_P2;PMS_P1;PMS_P2;Temp;Humidity;BMP_temperature;BMP_pressure;BME280_temperature;BME280_humidity;BME280_pressure;Samples;Min_cycle;Max_cycle;Signal;HPM_P1;HPM_P2
2023/09/02 00:01:45;;;;;;;3.10;1.70;;;;;;;;;;5118768;28;20277;-75
2023/09/02 00:04:13;;;;;;;1.97;1.80;;;;;;;;;;5119029;28;20573;-73
2023/09/02 00:06:41;;;;;;;5.50;1.97;;;;;;;;;;5118429;28;20211;-73
2023/09/02 00:09:09;;;;;;;2.10;1.87;;;;;;;;;;5105226;28;20232;-73
2023/09/02 00:11:37;;;;;;;4.07;2.30;;;;;;;;;;5118830;28;20226;-73
2023/09/02 00:14:05;;;;;;;2.00;1.80;;;;;;;;;;5117904;28;20198;-73
2023/09/02 00:16:33;;;;;;;3.10;2.00;;;;;;;;;;5118915;28;20238;-74
2023/09/02 00:19:04;;;;;;;2.63;1.77;;;;;;;;;;5118790;28;20210;-72
2023/09/02 00:21:32;;;;;;;3.73;2.03;;;;;;;;;;5118747;28;20230;-74
2023/09/02 00:24:05;;;;;;;2.40;2.20;;;;;;;;;;5118501;28;20209;-73
2023/09/02 00:26:33;;;;;;;2.73;2.00;;;;;;;;;;5115575;28;20209;-74
2023/09/02 00:29:02;;;;;;;3.77;1.80;;;;;;;;;;5118768;28;20677;-74
2023/09/02 00:31:30;;;;;;;3.03;1.80;;;;;;;;;;5100316;28;20221;-75
2023/09/02 00:33:58;;;;;;;2.93;2.20;;;;;;;;;;5101269;28;20199;-74
2023/09/02 00:36:30;;;;;;;2.37;1.60;;;;;;;;;;5102984;28;20201;-75
2023/09/02 00:38:59;;;;;;;3.07;2.00;;;;;;;;;;5112394;28;20733;-75
2023/09/02 00:41:30;;;;;;;3.13;2.17;;;;;;;;;;5110513;28;20218;-73
2023/09/02 00:43:59;;;;;;;2.33;2.10;;;;;;;;;;5107895;28;20207;-75
2023/09/02 00:46:27;;;;;;;2.50;2.30;;;;;;;;;;5100676;28;20210;-75
2023/09/02 00:48:55;;;;;;;2.20;2.00;;;;;;;;;;5104426;28;20232;-75
2023/09/02 00:51:23;;;;;;;2.27;1.97;;;;;;;;;;5114782;28;20237;-75
2023/09/02 00:53:52;;;;;;;2.43;2.10;;;;;;;;;;5103407;28;20197;-74
2023/09/02 00:56:20;;;;;;;3.83;2.50;;;;;;;;;;5110637;28;20248;-73
2023/09/02 00:58:48;;;;;;;3.03;2.03;;;;;;;;;;5101942;28;20198;-74
2023/09/02 01:01:16;;;;;;;2.50;1.73;;;;;;;;;;5111563;28;20271;-74
2023/09/02 01:03:44;;;;;;;3.20;1.97;;;;;;;;;;5109923;28;20216;-75
2023/09/02 01:06:13;;;;;;;4.30;2.50;;;;;;;;;;5100342;28;20207;-74
2023/09/02 01:08:41;;;;;;;2.50;2.20;;;;;;;;;;5109617;28;20229;-74
2023/09/02 01:11:11;;;;;;;3.77;2.57;;;;;;;;;;5112639;28;20214;-75
2023/09/02 01:13:39;;;;;;;3.03;2.73;;;;;;;;;;5110245;28;20230;-74
2023/09/02 01:16:07;;;;;;;3.00;2.60;;;;;;;;;;5097980;28;20216;-75
2023/09/02 01:18:36;;;;;;;3.57;2.60;;;;;;;;;;5117153;28;20201;-75
2023/09/02 01:21:19;;;;;;;4.07;2.37;;;;;;;;;;5117390;28;20268;-75
2023/09/02 01:23:57;;;;;;;3.17;2.40;;;;;;;;;;5110156;28;20238;-75
2023/09/02 01:26:35;;;;;;;2.87;2.30;;;;;;;;;;5101945;28;20198;-74
2023/09/02 01:29:06;;;;;;;4.30;2.50;;;;;;;;;;5108525;28;20221;-75
2023/09/02 01:31:35;;;;;;;3.40;2.70;;;;;;;;;;5117188;28;20224;-75
2023/09/02 01:34:06;;;;;;;2.73;2.20;;;;;;;;;;5116228;28;20202;-74
2023/09/02 01:36:34;;;;;;;2.50;2.13;;;;;;;;;;5104415;28;20230;-74
2023/09/02 01:39:03;;;;;;;2.60;2.40;;;;;;;;;;5113497;28;20200;-75
2023/09/02 01:41:31;;;;;;;2.50;2.20;;;;;;;;;;5117256;28;20221;-75
2023/09/02 01:44:00;;;;;;;2.37;1.73;;;;;;;;;;5121512;28;20690;-74
2023/09/02 01:46:30;;;;;;;2.80;2.50;;;;;;;;;;5111291;28;20262;-74
2023/09/02 01:48:58;;;;;;;2.80;2.20;;;;;;;;;;5112540;27;20225;-75
2023/09/02 01:51:26;;;;;;;3.63;2.23;;;;;;;;;;5124277;27;20223;-75
2023/09/02 01:53:54;;;;;;;3.93;2.00;;;;;;;;;;5121307;28;20205;-75
2023/09/02 01:56:22;;;;;;;3.50;2.30;;;;;;;;;;5117657;28;20244;-75
2023/09/02 01:58:50;;;;;;;4.13;1.97;;;;;;;;;;5112917;28;20201;-75
2023/09/02 02:01:18;;;;;;;6.03;2.40;;;;;;;;;;5121271;28;20225;-73
2023/09/02 02:03:54;;;;;;;2.50;2.20;;;;;;;;;;5121457;28;20207;-74
2023/09/02 02:06:23;;;;;;;2.17;1.90;;;;;;;;;;5108201;28;20269;-74
2023/09/02 02:08:54;;;;;;;2.20;2.10;;;;;;;;;;5120874;28;20303;-75
2023/09/02 02:11:22;;;;;;;3.67;2.23;;;;;;;;;;5120948;28;20225;-75
2023/09/02 02:13:50;;;;;;;4.07;2.40;;;;;;;;;;5115516;28;20213;-74
2023/09/02 02:16:22;;;;;;;3.90;2.20;;;;;;;;;;5121382;28;20213;-74
2023/09/02 02:18:51;;;;;;;3.43;2.13;;;;;;;;;;5121142;28;20218;-75
2023/09/02 02:21:19;;;;;;;4.60;2.23;;;;;;;;;;5120886;28;20239;-74
2023/09/02 02:23:47;;;;;;;2.70;2.20;;;;;;;;;;5120444;28;20204;-75
2023/09/02 02:26:16;;;;;;;2.33;2.03;;;;;;;;;;5116876;28;20230;-75
2023/09/02 02:28:44;;;;;;;2.30;2.10;;;;;;;;;;5100319;28;20235;-74
2023/09/02 02:31:12;;;;;;;2.67;1.90;;;;;;;;;;5116094;28;20221;-74
2023/09/02 02:33:42;;;;;;;3.43;2.37;;;;;;;;;;5104404;28;20247;-75
2023/09/02 02:36:11;;;;;;;2.10;2.00;;;;;;;;;;5120816;28;20205;-75
2023/09/02 02:38:39;;;;;;;3.40;2.30;;;;;;;;;;5104638;28;20213;-75
2023/09/02 02:41:07;;;;;;;2.70;2.00;;;;;;;;;;5113680;28;20219;-75
2023/09/02 02:43:35;;;;;;;4.17;2.37;;;;;;;;;;5106216;28;20209;-74
2023/09/02 02:46:03;;;;;;;3.37;1.87;;;;;;;;;;5113708;28;20253;-74
2023/09/02 02:48:31;;;;;;;3.33;2.73;;;;;;;;;;5107646;28;20199;-74
2023/09/02 02:50:59;;;;;;;4.53;2.30;;;;;;;;;;5115126;28;20345;-74
2023/09/02 02:53:29;;;;;;;3.07;2.13;;;;;;;;;;5114303;28;20193;-74
2023/09/02 02:55:57;;;;;;;6.03;2.60;;;;;;;;;;5113989;28;20202;-74
2023/09/02 02:58:25;;;;;;;3.03;2.20;;;;;;;;;;5115814;28;20197;-74
2023/09/02 03:01:01;;;;;;;2.00;1.90;;;;;;;;;;5118769;28;20801;-74
2023/09/02 03:03:29;;;;;;;3.27;2.23;;;;;;;;;;5105848;28;20764;-74
2023/09/02 03:05:57;;;;;;;3.07;2.37;;;;;;;;;;5105830;28;20552;-74
2023/09/02 03:08:25;;;;;;;3.67;2.27;;;;;;;;;;5109891;28;20205;-74
2023/09/02 03:10:58;;;;;;;4.07;2.50;;;;;;;;;;5119758;28;20232;-74
2023/09/02 03:13:28;;;;;;;2.97;2.00;;;;;;;;;;5120017;28;20223;-74
2023/09/02 03:15:56;;;;;;;4.37;1.90;;;;;;;;;;5120167;28;20235;-74
2023/09/02 03:18:25;;;;;;;3.47;1.67;;;;;;;;;;5119899;27;20205;-74
2023/09/02 03:20:53;;;;;;;2.80;1.80;;;;;;;;;;5120197;27;20229;-74
2023/09/02 03:23:21;;;;;;;2.73;2.40;;;;;;;;;;5119122;28;20210;-74
2023/09/02 03:25:49;;;;;;;3.43;2.33;;;;;;;;;;5119488;28;20232;-74
2023/09/02 03:28:19;;;;;;;4.10;2.13;;;;;;;;;;5119629;28;20237;-73
2023/09/02 03:30:49;;;;;;;2.43;2.00;;;;;;;;;;5115235;28;20224;-75
2023/09/02 03:33:17;;;;;;;2.33;1.70;;;;;;;;;;5116537;28;20228;-74
2023/09/02 03:35:46;;;;;;;2.90;2.27;;;;;;;;;;5109927;28;20258;-75
2023/09/02 03:38:14;;;;;;;2.07;1.87;;;;;;;;;;5117780;28;20220;-74
2023/09/02 03:40:42;;;;;;;3.33;1.90;;;;;;;;;;5116830;28;20225;-74
2023/09/02 03:43:10;;;;;;;2.47;1.87;;;;;;;;;;5116453;27;20201;-74
2023/09/02 03:45:40;;;;;;;3.33;1.80;;;;;;;;;;5119182;28;20203;-74
2023/09/02 03:48:08;;;;;;;1.87;1.67;;;;;;;;;;5113999;28;20205;-73
2023/09/02 03:50:56;;;;;;;3.20;1.67;;;;;;;;;;5105304;28;20681;-73
2023/09/02 03:53:24;;;;;;;1.67;1.57;;;;;;;;;;5110899;28;20200;-73
2023/09/02 03:55:52;;;;;;;3.03;1.90;;;;;;;;;;5116016;28;20265;-75
2023/09/02 03:58:20;;;;;;;2.73;1.77;;;;;;;;;;5111163;28;20222;-74
2023/09/02 04:00:49;;;;;;;1.70;1.50;;;;;;;;;;5118710;28;20252;-73
2023/09/02 04:03:19;;;;;;;1.90;1.43;;;;;;;;;;5118695;28;20288;-74
2023/09/02 04:05:48;;;;;;;4.00;1.60;;;;;;;;;;5119057;28;20235;-73
2023/09/02 04:08:17;;;;;;;5.07;1.70;;;;;;;;;;5118439;28;20203;-75
2023/09/02 04:10:45;;;;;;;2.50;1.63;;;;;;;;;;5118499;28;20232;-75
2023/09/02 04:13:13;;;;;;;3.00;1.70;;;;;;;;;;5110089;28;20216;-75
2023/09/02 04:15:41;;;;;;;2.27;1.60;;;;;;;;;;5118591;28;20208;-75
2023/09/02 04:18:10;;;;;;;2.30;1.70;;;;;;;;;;5118736;28;20567;-75
2023/09/02 04:20:38;;;;;;;2.13;1.57;;;;;;;;;;5119119;28;20231;-75
2023/09/02 04:23:06;;;;;;;3.97;1.90;;;;;;;;;;5118780;27;20231;-75
2023/09/02 04:25:34;;;;;;;4.50;1.70;;;;;;;;;;5118693;28;20204;-74
2023/09/02 04:28:02;;;;;;;2.70;1.67;;;;;;;;;;5118881;28;20241;-75
2023/09/02 04:30:30;;;;;;;2.50;1.80;;;;;;;;;;5104491;28;20231;-76
2023/09/02 04:32:58;;;;;;;3.10;1.90;;;;;;;;;;5104379;28;20194;-75
2023/09/02 04:35:27;;;;;;;2.93;1.47;;;;;;;;;;5097908;28;20306;-75
2023/09/02 04:37:55;;;;;;;3.13;2.07;;;;;;;;;;5103330;28;20263;-76
2023/09/02 04:40:23;;;;;;;2.10;1.90;;;;;;;;;;5104346;28;20232;-75
2023/09/02 04:42:51;;;;;;;3.37;1.70;;;;;;;;;;5102141;28;20267;-75
2023/09/02 04:45:19;;;;;;;2.87;1.70;;;;;;;;;;5108529;28;20196;-75
2023/09/02 04:47:47;;;;;;;3.07;1.93;;;;;;;;;;5103694;28;20248;-75
2023/09/02 04:50:16;;;;;;;2.73;1.80;;;;;;;;;;5109009;28;20219;-76
2023/09/02 04:52:45;;;;;;;3.73;1.50;;;;;;;;;;5097532;28;20208;-75
2023/09/02 04:55:13;;;;;;;3.93;1.80;;;;;;;;;;5100898;28;20215;-75
2023/09/02 04:57:41;;;;;;;5.10;1.97;;;;;;;;;;5105699;28;20731;-75
2023/09/02 05:00:10;;;;;;;2.47;1.83;;;;;;;;;;5115466;28;20225;-75
2023/09/02 05:02:38;;;;;;;5.30;1.80;;;;;;;;;;5101547;28;20230;-73
2023/09/02 05:05:06;;;;;;;2.00;1.67;;;;;;;;;;5096407;28;20213;-75
2023/09/02 05:07:34;;;;;;;2.17;1.70;;;;;;;;;;5100434;28;20205;-74
2023/09/02 05:10:04;;;;;;;3.43;1.97;;;;;;;;;;5101963;28;20228;-74
2023/09/02 05:12:33;;;;;;;2.13;1.80;;;;;;;;;;5110032;28;20241;-75
2023/09/02 05:15:01;;;;;;;2.73;1.63;;;;;;;;;;5112917;28;20334;-75
2023/09/02 05:17:29;;;;;;;3.10;1.90;;;;;;;;;;5115845;28;20200;-75
2023/09/02 05:19:57;;;;;;;4.20;2.20;;;;;;;;;;5109031;28;20220;-75
2023/09/02 05:22:25;;;;;;;3.07;1.90;;;;;;;;;;5105325;28;20266;-75
2023/09/02 05:24:53;;;;;;;5.17;2.17;;;;;;;;;;5107370;28;20209;-75
2023/09/02 05:27:23;;;;;;;4.70;2.20;;;;;;;;;;5105064;28;20622;-75
2023/09/02 05:29:51;;;;;;;2.33;1.77;;;;;;;;;;5103067;28;20211;-75
2023/09/02 05:32:19;;;;;;;4.17;2.10;;;;;;;;;;5104605;28;20693;-74
2023/09/02 05:34:47;;;;;;;3.27;2.40;;;;;;;;;;5110957;28;20194;-74
2023/09/02 05:37:15;;;;;;;3.43;2.40;;;;;;;;;;5115000;28;20200;-74
2023/09/02 05:39:43;;;;;;;2.70;1.90;;;;;;;;;;5113507;28;20246;-73
2023/09/02 05:42:11;;;;;;;2.67;1.77;;;;;;;;;;5114800;28;20191;-74
2023/09/02 05:44:41;;;;;;;4.17;1.90;;;;;;;;;;5115003;28;20203;-74
2023/09/02 05:47:09;;;;;;;7.00;2.30;;;;;;;;;;5114727;28;20632;-73
2023/09/02 05:49:41;;;;;;;2.70;2.00;;;;;;;;;;5108758;28;20593;-74
2023/09/02 05:52:09;;;;;;;4.83;1.77;;;;;;;;;;5102875;28;20229;-74
2023/09/02 05:54:36;;;;;;;3.00;2.03;;;;;;;;;;5096323;28;20612;-74
2023/09/02 05:57:05;;;;;;;5.93;2.33;;;;;;;;;;5106695;28;20203;-74
2023/09/02 05:59:33;;;;;;;4.47;2.77;;;;;;;;;;5117380;28;20266;-73
2023/09/02 06:02:02;;;;;;;2.93;1.80;;;;;;;;;;5117168;28;20219;-74
2023/09/02 06:04:30;;;;;;;2.57;1.90;;;;;;;;;;5119787;28;20207;-74
2023/09/02 06:06:58;;;;;;;4.70;2.10;;;;;;;;;;5121443;28;20263;-74
2023/09/02 06:09:27;;;;;;;3.77;1.90;;;;;;;;;;5120780;28;20571;-74
2023/09/02 06:11:54;;;;;;;5.43;2.03;;;;;;;;;;5119895;28;20234;-74
2023/09/02 06:14:23;;;;;;;3.00;1.90;;;;;;;;;;5114146;27;20250;-74
2023/09/02 06:16:51;;;;;;;3.60;1.80;;;;;;;;;;5119686;28;20214;-74
2023/09/02 06:19:20;;;;;;;3.03;1.90;;;;;;;;;;5122151;27;20210;-74
2023/09/02 06:21:48;;;;;;;3.17;1.90;;;;;;;;;;5100176;28;20240;-74
2023/09/02 06:24:16;;;;;;;2.43;1.80;;;;;;;;;;5120462;28;20671;-74
2023/09/02 06:26:44;;;;;;;1.50;1.37;;;;;;;;;;5116519;28;20212;-74
2023/09/02 06:29:13;;;;;;;1.70;1.60;;;;;;;;;;5108557;28;20719;-74
2023/09/02 06:31:41;;;;;;;3.23;1.87;;;;;;;;;;5116828;28;20234;-75
2023/09/02 06:34:09;;;;;;;2.93;1.80;;;;;;;;;;5106897;28;20278;-74
2023/09/02 06:36:39;;;;;;;4.60;2.40;;;;;;;;;;5104437;28;20205;-74
2023/09/02 06:39:07;;;;;;;4.17;2.27;;;;;;;;;;5101429;28;20201;-74
2023/09/02 06:41:35;;;;;;;6.97;2.37;;;;;;;;;;5108109;28;20262;-74
2023/09/02 06:44:03;;;;;;;5.57;2.30;;;;;;;;;;5103142;28;20205;-74
2023/09/02 06:46:33;;;;;;;3.37;2.07;;;;;;;;;;5118044;28;20214;-74
2023/09/02 06:49:05;;;;;;;3.17;2.03;;;;;;;;;;5110330;28;20205;-74
2023/09/02 06:51:33;;;;;;;2.80;2.27;;;;;;;;;;5099622;28;20221;-74
2023/09/02 06:54:02;;;;;;;3.47;1.87;;;;;;;;;;5102436;28;20206;-74
2023/09/02 06:56:30;;;;;;;4.43;1.80;;;;;;;;;;5102369;28;20203;-74
2023/09/02 06:58:58;;;;;;;4.57;1.97;;;;;;;;;;5105208;28;20202;-74
2023/09/02 07:01:27;;;;;;;4.37;2.13;;;;;;;;;;5117867;28;20222;-75
2023/09/02 07:03:56;;;;;;;2.43;1.93;;;;;;;;;;5099642;28;20202;-74
2023/09/02 07:06:24;;;;;;;3.43;2.33;;;;;;;;;;5116807;28;20229;-74
2023/09/02 07:08:52;;;;;;;2.07;1.83;;;;;;;;;;5108306;28;20212;-75
2023/09/02 07:11:22;;;;;;;6.13;3.17;;;;;;;;;;5103260;27;20237;-74
2023/09/02 07:13:50;;;;;;;2.57;2.10;;;;;;;;;;5100973;28;20198;-74
2023/09/02 07:16:19;;;;;;;2.93;1.73;;;;;;;;;;5110491;28;20622;-74
2023/09/02 07:18:47;;;;;;;3.57;2.23;;;;;;;;;;5113028;28;20290;-74
2023/09/02 07:21:21;;;;;;;3.87;1.87;;;;;;;;;;5117071;27;20619;-74
2023/09/02 07:23:49;;;;;;;3.87;2.37;;;;;;;;;;5114481;28;20230;-74
2023/09/02 07:26:18;;;;;;;2.83;1.97;;;;;;;;;;5115236;28;20658;-74
2023/09/02 07:28:47;;;;;;;4.33;2.07;;;;;;;;;;5116085;28;20202;-74
2023/09/02 07:31:16;;;;;;;2.47;1.80;;;;;;;;;;5099676;28;20254;-74
2023/09/02 07:33:45;;;;;;;3.07;1.90;;;;;;;;;;5099251;28;20698;-74
2023/09/02 07:36:14;;;;;;;4.33;2.20;;;;;;;;;;5113871;28;20207;-74
2023/09/02 07:38:44;;;;;;;3.03;1.93;;;;;;;;;;5105046;28;20307;-78
2023/09/02 07:41:12;;;;;;;3.43;2.00;;;;;;;;;;5119255;28;20254;-74
2023/09/02 07:43:40;;;;;;;4.83;1.80;;;;;;;;;;5102462;28;20566;-72
2023/09/02 07:46:10;;;;;;;3.60;2.00;;;;;;;;;;5108776;28;20210;-74
2023/09/02 07:48:39;;;;;;;4.03;2.00;;;;;;;;;;5108864;28;20227;-74
2023/09/02 07:51:07;;;;;;;3.00;1.97;;;;;;;;;;5116979;28;20227;-74
2023/09/02 07:53:35;;;;;;;3.03;2.03;;;;;;;;;;5110097;28;20226;-75
2023/09/02 07:56:03;;;;;;;2.90;1.70;;;;;;;;;;5107649;28;20571;-74
2023/09/02 07:58:31;;;;;;;5.47;1.60;;;;;;;;;;5116482;28;20572;-74
2023/09/02 08:00:59;;;;;;;2.80;2.00;;;;;;;;;;5117745;28;20216;-75
2023/09/02 08:03:28;;;;;;;4.33;2.00;;;;;;;;;;5118397;28;20233;-74
2023/09/02 08:05:56;;;;;;;3.97;2.37;;;;;;;;;;5118807;28;20200;-75
2023/09/02 08:08:25;;;;;;;2.93;2.00;;;;;;;;;;5116963;28;20193;-75
2023/09/02 08:11:01;;;;;;;3.57;1.80;;;;;;;;;;5115171;28;20228;-76
2023/09/02 08:13:29;;;;;;;3.73;1.60;;;;;;;;;;5100586;28;20273;-74
2023/09/02 08:15:57;;;;;;;2.07;1.70;;;;;;;;;;5117525;28;20207;-74
2023/09/02 08:18:25;;;;;;;2.90;2.00;;;;;;;;;;5103167;28;20262;-75
2023/09/02 08:20:54;;;;;;;2.07;1.63;;;;;;;;;;5107034;28;20224;-74
2023/09/02 08:23:23;;;;;;;2.27;1.67;;;;;;;;;;5113268;28;20198;-73
2023/09/02 08:25:51;;;;;;;2.40;1.57;;;;;;;;;;5118732;28;20596;-62
2023/09/02 08:28:19;;;;;;;4.10;1.73;;;;;;;;;;5115243;28;20196;-60
2023/09/02 08:30:47;;;;;;;2.10;1.90;;;;;;;;;;5112806;28;20568;-60
2023/09/02 08:33:15;;;;;;;2.70;1.93;;;;;;;;;;5117285;28;20736;-61
2023/09/02 08:35:43;;;;;;;2.27;1.60;;;;;;;;;;5115989;28;20203;-60
2023/09/02 08:38:13;;;;;;;2.67;1.80;;;;;;;;;;5116963;28;20266;-60
2023/09/02 08:40:43;;;;;;;2.77;1.70;;;;;;;;;;5112762;28;20217;-61
2023/09/02 08:43:12;;;;;;;2.10;1.80;;;;;;;;;;5117373;28;20193;-61
2023/09/02 08:45:41;;;;;;;3.97;1.80;;;;;;;;;;5116267;28;20242;-61
2023/09/02 08:48:12;;;;;;;3.87;1.90;;;;;;;;;;5111086;28;20207;-61
2023/09/02 08:50:40;;;;;;;1.87;1.63;;;;;;;;;;5107257;28;20229;-60
2023/09/02 08:53:08;;;;;;;1.70;1.40;;;;;;;;;;5113967;28;20216;-61
2023/09/02 08:55:38;;;;;;;1.70;1.60;;;;;;;;;;5102935;28;20209;-60
2023/09/02 08:58:06;;;;;;;1.70;1.60;;;;;;;;;;5096882;28;20208;-60
2023/09/02 09:00:35;;;;;;;2.97;1.63;;;;;;;;;;5102740;28;20225;-61
2023/09/02 09:03:05;;;;;;;4.55;1.50;;;;;;;;;;5111873;28;20222;-60
2023/09/02 09:05:34;;;;;;;2.33;1.90;;;;;;;;;;5118037;28;20199;-60
2023/09/02 09:08:02;;;;;;;1.40;1.30;;;;;;;;;;5116243;28;20270;-60
2023/09/02 09:10:32;;;;;;;1.50;1.40;;;;;;;;;;5112905;28;20315;-69
2023/09/02 09:13:03;;;;;;;4.07;1.90;;;;;;;;;;5107084;28;20226;-68
2023/09/02 09:15:32;;;;;;;2.93;1.60;;;;;;;;;;5112279;28;20208;-67
2023/09/02 09:18:00;;;;;;;3.33;1.40;;;;;;;;;;5103677;28;20200;-69
2023/09/02 09:20:28;;;;;;;5.27;1.70;;;;;;;;;;5103814;28;20217;-69
2023/09/02 09:22:56;;;;;;;2.30;2.10;;;;;;;;;;5103230;28;20201;-67
2023/09/02 09:25:24;;;;;;;2.93;1.60;;;;;;;;;;5099267;28;20197;-68
2023/09/02 09:27:52;;;;;;;2.10;1.63;;;;;;;;;;5098768;28;20219;-68
2023/09/02 09:30:28;;;;;;;4.10;1.55;;;;;;;;;;5107621;28;20678;-69
2023/09/02 09:33:01;;;;;;;1.60;1.50;;;;;;;;;;5098084;28;20239;-67
2023/09/02 09:35:30;;;;;;;2.60;1.70;;;;;;;;;;5111082;28;20289;-69
2023/09/02 09:37:58;;;;;;;2.05;1.63;;;;;;;;;;5103475;28;20210;-67
2023/09/02 09:40:30;;;;;;;2.40;1.40;;;;;;;;;;5112564;28;20219;-69
2023/09/02 09:42:59;;;;;;;1.63;1.52;;;;;;;;;;5120852;28;20202;-70
2023/09/02 09:45:29;;;;;;;2.50;1.77;;;;;;;;;;5121723;28;20246;-69
2023/09/02 09:47:58;;;;;;;2.80;1.65;;;;;;;;;;5108376;28;21851;-76
2023/09/02 09:50:28;;;;;;;5.05;1.80;;;;;;;;;;5121947;27;20224;-74
2023/09/02 09:53:04;;;;;;;1.85;1.73;;;;;;;;;;5108107;28;20268;-76
2023/09/02 09:55:33;;;;;;;1.83;1.40;;;;;;;;;;5100685;28;20200;-75
2023/09/02 09:58:01;;;;;;;2.15;1.73;;;;;;;;;;5123541;27;20206;-77
2023/09/02 10:00:31;;;;;;;2.45;1.90;;;;;;;;;;5120910;28;20227;-76
2023/09/02 10:03:00;;;;;;;2.67;1.73;;;;;;;;;;5120546;28;20583;-76
2023/09/02 10:05:29;;;;;;;2.78;1.80;;;;;;;;;;5120559;28;20235;-76
2023/09/02 10:07:58;;;;;;;2.60;1.60;;;;;;;;;;5120648;28;20211;-76
2023/09/02 10:10:30;;;;;;;2.55;1.60;;;;;;;;;;5119535;28;20235;-76
2023/09/02 10:12:58;;;;;;;1.80;1.70;;;;;;;;;;5120474;28;20699;-76
2023/09/02 10:15:27;;;;;;;3.47;1.73;;;;;;;;;;5120695;28;20253;-75
2023/09/02 10:17:57;;;;;;;4.05;1.90;;;;;;;;;;5120265;28;20570;-75
2023/09/02 10:20:26;;;;;;;3.10;1.63;;;;;;;;;;5115216;28;20714;-76
2023/09/02 10:22:55;;;;;;;2.00;1.52;;;;;;;;;;5118320;28;20208;-75
2023/09/02 10:25:25;;;;;;;2.08;1.58;;;;;;;;;;5109451;28;20209;-76
2023/09/02 10:27:58;;;;;;;2.70;1.75;;;;;;;;;;5108919;28;20257;-78
2023/09/02 10:30:30;;;;;;;1.35;1.25;;;;;;;;;;5103029;28;20220;-78
2023/09/02 10:33:07;;;;;;;3.03;1.35;;;;;;;;;;5107758;28;20206;-80
2023/09/02 10:35:37;;;;;;;3.17;1.38;;;;;;;;;;5099833;28;20229;-77
2023/09/02 10:38:07;;;;;;;2.35;1.73;;;;;;;;;;5102719;28;20204;-78
2023/09/02 10:40:38;;;;;;;2.20;1.67;;;;;;;;;;5118694;28;20223;-76
2023/09/02 10:43:07;;;;;;;2.40;1.50;;;;;;;;;;5106219;28;20209;-75
2023/09/02 10:45:35;;;;;;;1.90;1.45;;;;;;;;;;5120278;28;20212;-75
2023/09/02 10:48:05;;;;;;;2.08;1.40;;;;;;;;;;5110170;27;20668;-77
2023/09/02 10:50:34;;;;;;;3.38;1.65;;;;;;;;;;5116972;28;20232;-76
2023/09/02 10:53:02;;;;;;;4.28;1.80;;;;;;;;;;5112133;28;20206;-75
2023/09/02 10:56:01;;;;;;;1.95;1.73;;;;;;;;;;5102713;28;20203;-75
2023/09/02 10:58:45;;;;;;;2.65;1.30;;;;;;;;;;5107696;28;20769;-75
2023/09/02 11:01:13;;;;;;;1.67;1.58;;;;;;;;;;5110293;28;20217;-76
2023/09/02 11:03:44;;;;;;;3.90;3.50;;;;;;;;;;5098625;28;20667;-77
2023/09/02 11:06:15;;;;;;;2.75;1.50;;;;;;;;;;5115650;28;20214;-75
2023/09/02 11:08:44;;;;;;;2.20;1.58;;;;;;;;;;5099782;28;20208;-75
2023/09/02 11:11:12;;;;;;;4.72;2.58;;;;;;;;;;5116914;28;20632;-78
2023/09/02 11:13:59;;;;;;;3.55;2.70;;;;;;;;;;5101915;28;20225;-76
2023/09/02 11:16:27;;;;;;;2.38;1.55;;;;;;;;;;5107617;28;20254;-77
2023/09/02 11:18:56;;;;;;;2.15;1.77;;;;;;;;;;5099949;28;20204;-75
2023/09/02 11:21:37;;;;;;;2.97;1.83;;;;;;;;;;5104635;28;20241;-76
2023/09/02 11:24:15;;;;;;;2.15;1.52;;;;;;;;;;5101790;28;20203;-78
2023/09/02 11:26:53;;;;;;;2.17;1.67;;;;;;;;;;5103209;28;20212;-78
2023/09/02 11:29:21;;;;;;;3.95;1.55;;;;;;;;;;5118944;28;20208;-75
2023/09/02 11:31:56;;;;;;;1.90;1.70;;;;;;;;;;5117701;28;20227;-79
2023/09/02 11:34:26;;;;;;;4.38;1.80;;;;;;;;;;5113733;28;20223;-77
2023/09/02 11:36:54;;;;;;;1.67;1.58;;;;;;;;;;5107318;28;20211;-77
2023/09/02 11:39:25;;;;;;;1.58;1.48;;;;;;;;;;5113755;28;20666;-78
2023/09/02 11:42:06;;;;;;;3.85;1.60;;;;;;;;;;5110555;28;20249;-69
2023/09/02 11:44:35;;;;;;;1.73;1.52;;;;;;;;;;5099305;28;20554;-69
2023/09/02 11:47:03;;;;;;;2.10;1.30;;;;;;;;;;5110094;28;20238;-69
2023/09/02 11:49:33;;;;;;;1.85;1.30;;;;;;;;;;5111213;28;20967;-69
2023/09/02 11:52:01;;;;;;;2.42;1.70;;;;;;;;;;5105955;27;20209;-69
2023/09/02 11:54:29;;;;;;;1.88;1.60;;;;;;;;;;5111442;28;20223;-70
2023/09/02 11:56:58;;;;;;;1.65;1.55;;;;;;;;;;5115782;28;20664;-70
2023/09/02 11:59:26;;;;;;;1.95;1.85;;;;;;;;;;5120568;27;20219;-70
2023/09/02 12:02:10;;;;;;;4.10;1.70;;;;;;;;;;5126318;27;20238;-70
2023/09/02 12:04:40;;;;;;;1.50;1.40;;;;;;;;;;5118825;28;20566;-70
2023/09/02 12:07:08;;;;;;;1.80;1.70;;;;;;;;;;5118265;28;20237;-70
2023/09/02 12:09:37;;;;;;;1.90;1.75;;;;;;;;;;5114502;28;20204;-70
2023/09/02 12:12:06;;;;;;;1.48;1.33;;;;;;;;;;5119074;28;20200;-68
2023/09/02 12:14:35;;;;;;;2.08;1.80;;;;;;;;;;5118619;28;20223;-70
2023/09/02 12:17:04;;;;;;;3.47;1.60;;;;;;;;;;5118288;28;20669;-70
2023/09/02 12:19:33;;;;;;;1.67;1.58;;;;;;;;;;5118666;28;20211;-70
2023/09/02 12:22:02;;;;;;;2.13;1.63;;;;;;;;;;5118392;28;20208;-68
2023/09/02 12:24:30;;;;;;;3.15;1.75;;;;;;;;;;5117193;28;20206;-70
2023/09/02 12:26:58;;;;;;;2.85;1.95;;;;;;;;;;5106146;28;20671;-70
2023/09/02 12:29:26;;;;;;;3.90;1.60;;;;;;;;;;5101912;28;20244;-70
2023/09/02 12:31:55;;;;;;;3.38;1.80;;;;;;;;;;5110285;28;20219;-70
2023/09/02 12:34:24;;;;;;;4.32;2.78;;;;;;;;;;5114779;28;20589;-70
2023/09/02 12:36:52;;;;;;;1.63;1.23;;;;;;;;;;5103192;28;20201;-70
2023/09/02 12:39:25;;;;;;;2.47;1.55;;;;;;;;;;5109739;28;20208;-70
2023/09/02 12:41:53;;;;;;;2.40;1.77;;;;;;;;;;5108869;28;20292;-70
2023/09/02 12:44:21;;;;;;;2.67;1.85;;;;;;;;;;5113118;28;20208;-70
2023/09/02 12:46:49;;;;;;;4.15;2.30;;;;;;;;;;5110040;28;20209;-70
2023/09/02 12:49:17;;;;;;;1.85;1.58;;;;;;;;;;5113478;28;20197;-71
2023/09/02 12:51:45;;;;;;;2.40;1.42;;;;;;;;;;5114813;28;20224;-71
2023/09/02 12:54:14;;;;;;;3.72;1.63;;;;;;;;;;5102295;28;20200;-77
2023/09/02 12:56:45;;;;;;;3.05;1.45;;;;;;;;;;5100244;28;20204;-77
2023/09/02 12:59:14;;;;;;;1.95;1.60;;;;;;;;;;5101753;28;20196;-76
2023/09/02 13:01:42;;;;;;;1.65;1.45;;;;;;;;;;5116894;28;20748;-77
2023/09/02 13:04:10;;;;;;;2.35;1.70;;;;;;;;;;5104141;28;20537;-77
2023/09/02 13:06:38;;;;;;;2.70;1.45;;;;;;;;;;5110921;28;20204;-78
2023/09/02 13:09:06;;;;;;;1.70;1.60;;;;;;;;;;5099834;28;20258;-77
2023/09/02 13:11:34;;;;;;;2.53;1.65;;;;;;;;;;5099453;28;20228;-77
2023/09/02 13:14:03;;;;;;;2.15;1.58;;;;;;;;;;5105517;28;20205;-76
2023/09/02 13:16:31;;;;;;;4.10;1.40;;;;;;;;;;5106713;28;20232;-77
2023/09/02 13:18:59;;;;;;;1.90;1.40;;;;;;;;;;5108130;28;20195;-77
2023/09/02 13:21:27;;;;;;;1.60;1.50;;;;;;;;;;5116189;28;20219;-77
2023/09/02 13:23:57;;;;;;;1.60;1.45;;;;;;;;;;5113166;28;20212;-76
2023/09/02 13:26:25;;;;;;;2.85;1.40;;;;;;;;;;5112901;28;20196;-78
2023/09/02 13:28:53;;;;;;;3.72;1.58;;;;;;;;;;5107959;28;20205;-77
2023/09/02 13:31:22;;;;;;;3.13;1.50;;;;;;;;;;5112362;28;20217;-76
2023/09/02 13:33:50;;;;;;;1.40;1.30;;;;;;;;;;5121113;28;20204;-78
2023/09/02 13:36:18;;;;;;;2.13;1.60;;;;;;;;;;5106740;28;20224;-77
2023/09/02 13:38:46;;;;;;;1.60;1.30;;;;;;;;;;5115344;28;20212;-77
2023/09/02 13:41:15;;;;;;;2.65;1.60;;;;;;;;;;5104007;28;20236;-77
2023/09/02 13:43:43;;;;;;;1.70;1.60;;;;;;;;;;5109117;28;20204;-77
2023/09/02 13:46:12;;;;;;;1.80;1.70;;;;;;;;;;5119550;28;20201;-77
2023/09/02 13:48:42;;;;;;;1.13;1.02;;;;;;;;;;5112648;28;20211;-77
2023/09/02 13:51:15;;;;;;;3.78;1.70;;;;;;;;;;5100239;28;20248;-78
2023/09/02 13:53:43;;;;;;;3.10;1.45;;;;;;;;;;5110588;28;20572;-70
2023/09/02 13:56:14;;;;;;;1.65;1.55;;;;;;;;;;5108993;28;20220;-69
2023/09/02 13:58:42;;;;;;;1.70;1.45;;;;;;;;;;5113039;28;20588;-69
2023/09/02 14:01:10;;;;;;;2.47;1.50;;;;;;;;;;5121527;28;20231;-69
2023/09/02 14:03:38;;;;;;;1.38;1.25;;;;;;;;;;5121170;28;20233;-69
2023/09/02 14:06:08;;;;;;;3.13;1.33;;;;;;;;;;5121487;28;20612;-67
2023/09/02 14:08:37;;;;;;;2.35;1.70;;;;;;;;;;5119102;28;20204;-67
2023/09/02 14:11:05;;;;;;;2.75;1.40;;;;;;;;;;5121185;28;20312;-68
2023/09/02 14:13:35;;;;;;;2.45;1.25;;;;;;;;;;5121488;28;20205;-69
2023/09/02 14:16:04;;;;;;;2.17;1.60;;;;;;;;;;5120963;27;20295;-70
2023/09/02 14:18:32;;;;;;;2.42;1.20;;;;;;;;;;5121233;28;20230;-70
2023/09/02 14:21:00;;;;;;;2.20;1.20;;;;;;;;;;5120839;28;20228;-68
2023/09/02 14:23:32;;;;;;;1.75;1.20;;;;;;;;;;5120695;28;20266;-69
2023/09/02 14:26:00;;;;;;;1.63;1.10;;;;;;;;;;5120412;27;20222;-69
2023/09/02 14:28:30;;;;;;;1.95;1.58;;;;;;;;;;5120900;27;20204;-69
2023/09/02 14:30:58;;;;;;;3.67;1.55;;;;;;;;;;5106718;28;20233;-69
2023/09/02 14:33:27;;;;;;;1.60;1.30;;;;;;;;;;5115751;28;20559;-70
2023/09/02 14:35:54;;;;;;;2.22;1.40;;;;;;;;;;5108559;28;20767;-69
2023/09/02 14:38:22;;;;;;;2.35;1.13;;;;;;;;;;5102432;28;20266;-69
2023/09/02 14:40:52;;;;;;;3.20;1.27;;;;;;;;;;5108564;28;20629;-69
2023/09/02 14:43:21;;;;;;;1.65;1.30;;;;;;;;;;5114445;28;20660;-70
2023/09/02 14:45:49;;;;;;;1.27;1.17;;;;;;;;;;5118420;28;20567;-74
2023/09/02 14:48:17;;;;;;;1.40;1.27;;;;;;;;;;5102589;28;20665;-76
2023/09/02 14:50:45;;;;;;;1.50;1.40;;;;;;;;;;5114826;28;20220;-76
2023/09/02 14:53:14;;;;;;;2.50;1.20;;;;;;;;;;5099464;28;20197;-77
2023/09/02 14:55:44;;;;;;;2.70;1.30;;;;;;;;;;5102272;28;20584;-76